createdAt,value
2018-09-04T00:04:39.338Z,11.13
2018-09-04T00:09:44.270Z,9.70
2018-09-04T00:14:49.259Z,10.30
2018-09-04T00:19:54.248Z,10.37
2018-09-04T00:24:59.106Z,8.77
2018-09-04T00:30:04.265Z,10.63
2018-09-04T00:35:09.179Z,9.73
2018-09-04T00:40:14.041Z,10.03
2018-09-04T00:45:18.997Z,10.03
2018-09-04T00:50:24.107Z,10.33
2018-09-04T00:55:29.187Z,10.30
2018-09-04T01:00:34.165Z,11.63
2018-09-04T01:05:38.953Z,14.83
2018-09-04T01:10:43.813Z,14.63
2018-09-04T01:15:49.016Z,14.20
2018-09-04T01:20:54.126Z,16.10
2018-09-04T01:25:58.988Z,15.67
2018-09-04T01:31:04.060Z,13.73
2018-09-04T01:36:08.865Z,15.30
2018-09-04T01:41:13.859Z,14.47
2018-09-04T01:46:18.886Z,13.80
2018-09-04T01:51:23.943Z,13.40
2018-09-04T01:56:29.020Z,11.83
2018-09-04T02:01:34.489Z,13.17
2018-09-04T02:06:39.441Z,12.93
2018-09-04T02:11:44.298Z,11.47
2018-09-04T02:16:49.312Z,11.10
2018-09-04T02:21:54.290Z,11.07
2018-09-04T02:26:59.244Z,10.83
2018-09-04T02:32:04.061Z,11.90
2018-09-04T02:37:09.077Z,12.73
2018-09-04T02:42:13.917Z,12.63
2018-09-04T02:47:18.812Z,12.37
2018-09-04T02:52:23.782Z,13.00
2018-09-04T02:57:28.852Z,12.83
2018-09-04T03:02:33.938Z,11.90
2018-09-04T03:07:38.868Z,12.57
2018-09-04T03:12:43.695Z,12.73
2018-09-04T03:17:48.739Z,13.07
2018-09-04T03:22:53.867Z,13.30
2018-09-04T03:27:58.757Z,13.00
2018-09-04T03:33:03.683Z,13.50
2018-09-04T03:38:08.880Z,12.93
2018-09-04T03:43:13.963Z,13.33
2018-09-04T03:48:18.913Z,12.73
2018-09-04T03:53:23.888Z,13.40
2018-09-04T03:58:28.774Z,13.07
2018-09-04T04:03:33.702Z,12.90
2018-09-04T04:08:38.712Z,12.23
2018-09-04T04:13:43.830Z,12.77
2018-09-04T04:18:48.825Z,12.17
2018-09-04T04:23:54.057Z,12.00
2018-09-04T04:28:59.283Z,13.03
2018-09-04T04:34:04.292Z,13.13
2018-09-04T04:39:10.223Z,12.30
2018-09-04T04:44:15.254Z,13.50
2018-09-04T04:49:20.483Z,13.70
2018-09-04T04:54:25.406Z,14.47
2018-09-04T04:59:30.541Z,13.67
2018-09-04T05:04:35.738Z,15.57
2018-09-04T05:09:40.816Z,12.50
2018-09-04T05:14:45.832Z,13.70
2018-09-04T05:19:50.790Z,14.07
2018-09-04T05:24:55.696Z,12.90
2018-09-04T05:30:01.690Z,13.50
2018-09-04T05:35:06.936Z,13.40
2018-09-04T05:40:12.349Z,11.30
2018-09-04T05:45:17.326Z,13.00
2018-09-04T05:50:22.362Z,14.07
2018-09-04T05:55:27.292Z,13.47
2018-09-04T06:00:35.447Z,12.07
2018-09-04T06:05:40.471Z,13.13
2018-09-04T06:10:45.451Z,14.20
2018-09-04T06:15:50.465Z,13.97
2018-09-04T06:20:55.728Z,13.07
2018-09-04T06:26:01.035Z,14.20
2018-09-04T06:31:06.014Z,14.23
2018-09-04T06:36:10.966Z,14.23
2018-09-04T06:41:15.998Z,12.30
2018-09-04T06:46:21.432Z,12.43
2018-09-04T06:51:26.368Z,12.20
2018-09-04T06:56:31.485Z,10.57
2018-09-04T07:01:36.453Z,14.33
2018-09-04T07:06:41.379Z,10.70
2018-09-04T07:11:46.439Z,11.00
2018-09-04T07:16:51.603Z,13.17
2018-09-04T07:21:56.791Z,10.43
2018-09-04T07:27:01.680Z,10.00
2018-09-04T07:32:06.619Z,9.77
2018-09-04T07:37:11.824Z,12.60
2018-09-04T07:42:16.840Z,9.57
2018-09-04T07:47:21.796Z,10.80
2018-09-04T07:52:26.635Z,9.80
2018-09-04T07:57:31.815Z,10.47
2018-09-04T08:02:36.784Z,11.03
2018-09-04T08:07:41.952Z,10.70
2018-09-04T08:12:46.916Z,10.33
2018-09-04T08:17:51.958Z,10.03
2018-09-04T08:22:57.064Z,11.27
2018-09-04T08:28:02.080Z,10.43
2018-09-04T08:33:07.046Z,10.13
2018-09-04T08:38:11.948Z,11.40
2018-09-04T08:43:17.009Z,12.30
2018-09-04T08:48:22.569Z,11.30
2018-09-04T08:53:27.529Z,10.73
2018-09-04T08:58:32.469Z,10.37
2018-09-04T09:03:37.520Z,8.93
2018-09-04T09:08:42.470Z,10.40
2018-09-04T09:13:47.487Z,12.73
2018-09-04T09:18:52.851Z,9.27
2018-09-04T09:23:57.825Z,10.00
2018-09-04T09:29:02.789Z,9.13
2018-09-04T09:34:07.732Z,9.43
2018-09-04T09:39:12.631Z,7.33
2018-09-04T09:44:17.594Z,6.27
2018-09-04T09:49:22.456Z,5.00
2018-09-04T09:54:27.580Z,6.30
2018-09-04T09:59:32.757Z,6.57
2018-09-04T10:04:37.724Z,6.37
2018-09-04T10:09:42.815Z,7.07
2018-09-04T10:14:47.787Z,7.20
2018-09-04T10:19:52.901Z,7.00
2018-09-04T10:24:57.883Z,7.63
2018-09-04T10:30:02.815Z,8.00
2018-09-04T10:35:07.754Z,7.30
2018-09-04T10:40:17.745Z,6.90
2018-09-04T10:45:27.753Z,9.73
2018-09-04T10:50:32.670Z,7.37
2018-09-04T10:55:37.600Z,7.83
2018-09-04T11:00:42.583Z,8.17
2018-09-04T11:05:47.824Z,6.80
2018-09-04T11:10:52.745Z,6.75
2018-09-04T11:15:57.760Z,7.08
2018-09-04T11:21:02.842Z,7.35
2018-09-04T11:26:07.833Z,7.20
2018-09-04T11:31:12.679Z,6.80
2018-09-04T11:36:17.656Z,6.25
2018-09-04T11:41:22.885Z,6.67
2018-09-04T11:46:27.742Z,6.93
2018-09-04T11:51:32.674Z,6.37
2018-09-04T11:56:41.394Z,6.33
2018-09-04T12:01:50.716Z,6.22
2018-09-04T12:06:55.785Z,6.15
2018-09-04T12:12:00.742Z,6.08
2018-09-04T12:17:09.069Z,7.00
2018-09-04T12:22:14.309Z,6.40
2018-09-04T12:27:20.640Z,6.53
2018-09-04T12:32:25.618Z,6.60
2018-09-04T12:37:30.514Z,6.12
2018-09-04T12:42:35.413Z,6.15
2018-09-04T12:47:40.397Z,8.23
2018-09-04T12:52:45.634Z,5.95
2018-09-04T12:57:50.709Z,5.45
2018-09-04T13:02:55.643Z,5.33
2018-09-04T13:08:00.654Z,5.97
2018-09-04T13:13:05.830Z,5.53
2018-09-04T13:18:10.728Z,6.45
2018-09-04T13:23:15.809Z,6.08
2018-09-04T13:28:20.941Z,5.47
2018-09-04T13:33:25.960Z,5.50
2018-09-04T13:38:30.883Z,5.87
2018-09-04T13:43:36.372Z,5.25
2018-09-04T13:48:41.897Z,5.70
2018-09-04T13:53:47.198Z,5.12
2018-09-04T13:58:52.535Z,5.45
2018-09-04T14:03:57.704Z,5.37
2018-09-04T14:09:05.474Z,5.47
2018-09-04T14:14:12.357Z,5.40
2018-09-04T14:19:17.673Z,5.05
2018-09-04T14:24:22.640Z,4.65
2018-09-04T14:34:34.571Z,5.35
2018-09-04T14:39:39.491Z,4.90
2018-09-04T14:44:44.665Z,5.40
2018-09-04T14:49:49.674Z,5.53
2018-09-04T14:54:55.702Z,5.07
2018-09-04T15:00:00.716Z,5.03
2018-09-04T15:05:05.599Z,6.13
2018-09-04T15:10:10.540Z,5.30
2018-09-04T15:15:16.878Z,4.95
2018-09-04T15:20:22.040Z,4.75
2018-09-04T15:25:27.106Z,5.40
2018-09-04T15:30:32.141Z,5.60
2018-09-04T15:35:37.086Z,5.33
2018-09-04T15:40:42.125Z,5.50
2018-09-04T15:45:47.097Z,7.20
2018-09-04T15:50:52.053Z,6.00
2018-09-04T15:55:57.140Z,5.20
2018-09-04T16:01:02.029Z,5.17
2018-09-04T16:06:06.956Z,5.37
2018-09-04T16:11:11.828Z,5.00
2018-09-04T16:16:17.101Z,4.50
2018-09-04T16:21:22.131Z,6.60
2018-09-04T16:26:27.372Z,5.47
2018-09-04T16:31:32.344Z,5.17
2018-09-04T16:36:37.394Z,5.43
2018-09-04T16:41:43.477Z,4.60
2018-09-04T16:46:48.393Z,5.13
2018-09-04T16:51:53.343Z,5.23
2018-09-04T16:56:58.491Z,5.30
2018-09-04T17:02:03.409Z,5.10
2018-09-04T17:07:08.373Z,4.60
2018-09-04T17:12:13.315Z,4.30
2018-09-04T17:17:19.677Z,5.07
2018-09-04T17:22:24.578Z,8.53
2018-09-04T17:27:29.436Z,4.63
2018-09-04T17:32:34.374Z,4.70
2018-09-04T17:37:39.541Z,4.90
2018-09-04T17:42:44.494Z,5.30
2018-09-04T17:47:49.593Z,5.47
2018-09-04T17:52:55.211Z,6.50
2018-09-04T17:58:00.262Z,5.60
2018-09-04T18:03:05.387Z,5.23
2018-09-04T18:08:10.385Z,5.20
2018-09-04T18:13:15.235Z,7.63
2018-09-04T18:18:20.252Z,7.43
2018-09-04T18:23:26.491Z,5.57
2018-09-04T18:28:31.389Z,5.77
2018-09-04T18:33:36.406Z,6.50
2018-09-04T18:38:41.518Z,10.50
2018-09-04T18:43:46.388Z,14.57
2018-09-04T18:48:54.890Z,9.83
2018-09-04T18:53:59.864Z,5.70
2018-09-04T18:59:04.734Z,7.20
2018-09-04T19:04:10.241Z,7.00
2018-09-04T19:09:15.205Z,22.77
2018-09-04T19:14:20.209Z,5.43
2018-09-04T19:19:25.316Z,5.83
2018-09-04T19:24:30.386Z,7.60
2018-09-04T19:29:35.404Z,10.63
2018-09-04T19:34:40.480Z,8.73
2018-09-04T19:39:47.377Z,6.80
2018-09-04T19:44:52.869Z,7.33
2018-09-04T19:49:57.915Z,6.00
2018-09-04T19:55:02.904Z,5.70
2018-09-04T20:00:13.216Z,6.50
2018-09-04T20:05:18.367Z,6.77
2018-09-04T20:10:23.415Z,6.80
2018-09-04T20:15:29.406Z,8.67
2018-09-04T20:20:35.489Z,8.17
2018-09-04T20:25:40.629Z,8.30
2018-09-04T20:30:46.613Z,7.77
2018-09-04T20:35:51.770Z,7.93
2018-09-04T20:40:56.824Z,7.90
2018-09-04T20:46:02.417Z,8.07
2018-09-04T20:51:07.663Z,8.90
2018-09-04T20:56:12.969Z,8.90
2018-09-04T21:01:28.721Z,8.53
2018-09-04T21:07:04.683Z,8.73
2018-09-04T21:12:10.268Z,8.03
2018-09-04T21:17:18.443Z,8.97
2018-09-04T21:22:24.179Z,9.93
2018-09-04T21:27:29.133Z,9.53
2018-09-04T21:32:34.791Z,9.73
2018-09-04T21:37:39.916Z,10.60
2018-09-04T21:42:45.378Z,10.17
2018-09-04T21:47:52.329Z,10.37
2018-09-04T21:52:57.268Z,10.10
2018-09-04T21:58:02.250Z,9.70
2018-09-04T22:03:09.469Z,10.13
2018-09-04T22:08:16.298Z,10.10
2018-09-04T22:13:21.249Z,10.10
2018-09-04T22:18:26.783Z,10.37
2018-09-04T22:23:32.063Z,10.50
2018-09-04T22:28:37.680Z,11.17
2018-09-04T22:33:42.627Z,9.50
2018-09-04T22:38:47.691Z,10.70
2018-09-04T22:43:52.561Z,9.50
2018-09-04T22:48:57.444Z,8.83
2018-09-04T22:54:03.287Z,9.63
2018-09-04T22:59:08.291Z,8.53
2018-09-04T23:04:14.322Z,8.83
2018-09-04T23:09:22.029Z,8.33
2018-09-04T23:14:27.855Z,8.63
2018-09-04T23:19:32.776Z,9.00
2018-09-04T23:24:38.353Z,9.23
2018-09-04T23:29:43.492Z,9.00
2018-09-04T23:34:48.798Z,8.80
2018-09-04T23:39:53.670Z,9.00
2018-09-04T23:44:59.329Z,9.23
2018-09-04T23:50:04.330Z,10.60
2018-09-04T23:55:09.557Z,9.20
